Weather observations for the past three days for
Dillon, Dillon Airport
Imperial (Metric)
Date Time (mdt) Wind (mph) Vis. (mi.) Weather Sky Cond. Temperature (ºF) Relative Humidity Wind Chill (°F) Heat Index (°F) Pressure Precipitation (in)
Air Dwpt 6 hour altimeter (in) sea level (mb) 1 hr 3 hr 6 hr
Max. Min.
04 00:53 S 7 10.00 Fair CLR 48.9 23 36% 46 29.88 1007.8
03 23:53 S 7 10.00 Fair CLR 51.1 24.1 70 45 35% 29.88 1007.9
03 22:53 S 3 10.00 Fair CLR 48.9 23 36% 29.88 1008.2
03 21:53 SE 5 10.00 Fair CLR 50 21.9 33% 49 29.86 1008.1
03 20:53 NW 6 10.00 Fair CLR 59 23 25% 29.85 1007.3
03 19:53 NW 8 10.00 Fair CLR 64.9 24.1 21% 29.84 1007.1
03 18:53 NW 6 10.00 Fair CLR 70 21 16% 29.85 1007.5
03 17:53 N 9 10.00 A Few Clouds FEW120 69.1 21 72 64 16% 29.86 1008.0
03 16:53 Vrbl 5 10.00 Fair CLR 71.1 21.9 16% 29.88 1008.0
03 15:53 Vrbl 3 10.00 Fair CLR 70 24.1 18% 29.9 1008.9
03 14:53 Calm 10.00 Fair CLR 69.1 25 19% 29.93 1009.8
03 13:53 Vrbl 6 10.00 A Few Clouds FEW100 69.1 26.1 20% 29.95 1010.1
03 12:53 Vrbl 7 10.00 Fair CLR 68 26.1 21% 29.97 1011.6
03 11:53 Calm 10.00 Fair CLR 64 27 64.9 36 25% 30 1011.9
03 10:53 Vrbl 3 10.00 Fair CLR 60.1 27 28% 30.02 1013.0
03 09:53 SW 9 10.00 Fair CLR 55.9 26.1 32% 30.03 1013.6
03 08:53 SW 8 10.00 Fair CLR 48.9 26.1 41% 46 30.05 1014.7
03 07:53 SW 8 10.00 Fair CLR 42.1 26.1 53% 38 30.05 1014.8
03 06:53 S 13 10.00 Fair CLR 37 24.1 59% 30 30.04 1014.8
03 05:53 S 13 10.00 Fair CLR 36 24.1 51.1 34 62% 28 30.05 1014.5
03 04:53 SW 7 10.00 Fair CLR 39.9 25 55% 36 30.05 1014.1
03 03:53 S 6 10.00 Fair CLR 41 25 53% 38 30.05 1013.9
03 02:53 S 8 10.00 Fair CLR 42.1 21.9 45% 38 30.04 1013.6
03 01:53 S 9 10.00 Fair CLR 48 27 44% 44 30.04 1013.4
03 00:53 SW 8 10.00 Fair CLR 39.9 24.1 53% 35 30.04 1014.2
02 23:53 SE 3 10.00 Fair CLR 51.1 26.1 70 48 38% 30.03 1013.3
02 22:53 E 9 10.00 Fair CLR 51.1 25 36% 30.02 1013.2
02 21:53 E 8 10.00 Fair CLR 53.1 25 34% 30.01 1013.4
02 20:53 E 8 10.00 Fair CLR 55 14 20% 29.99 1012.9
02 19:53 W 7 10.00 Fair CLR 63 19 18% 29.98 1012.3
02 18:53 NW 7 10.00 Fair CLR 64.9 18 16% 29.98 1012.4
02 17:53 NW 13 10.00 Fair CLR 69.1 12 73 64.9 11% 29.98 1012.3
02 16:53 NW 14 G 23 10.00 Fair CLR 72 9 9% 29.98 1012.0
02 15:53 W 13 G 25 10.00 Fair CLR 72 9 9% 30.01 1012.4
02 14:53 W 10 G 17 10.00 Fair CLR 72 10.9 9% 30.03 1012.9
02 13:53 W 10 G 22 10.00 Fair CLR 70 12 10% 30.05 1013.8
02 12:53 S 8 10.00 Fair CLR 68 14 12% 30.07 1014.8
02 11:53 S 5 10.00 Fair CLR 64.9 15.1 64.9 35.1 14% 30.09 1016.0
02 10:53 Calm 10.00 Fair CLR 60.1 16 18% 30.11 1016.6
02 09:53 SW 6 10.00 Fair CLR 53.1 19.9 27% 30.13 1017.2
02 08:53 SW 8 10.00 Fair CLR 48 19.9 33% 45 30.13 1018.3
02 07:53 S 7 10.00 Fair CLR 41 21 45% 37 30.14 1017.9
02 06:53 SW 13 10.00 Fair CLR 37.9 19 46% 31 30.13 1017.4
02 05:53 S 10 10.00 Fair CLR 36 18 46 36 48% 29 30.12 1017.4
02 04:53 SW 10 10.00 Fair CLR 37 17.1 44% 30 30.12 1017.4
02 03:53 S 13 10.00 Fair CLR 41 18 39% 34 30.12 1017.0
02 02:53 S 10 10.00 Fair CLR 44.1 19.9 38% 39 30.12 1016.6
02 01:53 S 14 10.00 Fair CLR 44.1 19.9 38% 38 30.12 1017.0
02 00:53 S 13 10.00 Fair CLR 43 21 42% 37 30.11 1017.1
01 23:53 W 3 10.00 Fair CLR 43 18 68 43 37% 30.1 1017.1
01 22:53 SW 6 10.00 Fair CLR 46.9 19 33% 45 30.1 1016.6
01 21:53 W 3 10.00 Fair CLR 55 15.1 21% 30.08 1016.0
01 20:53 SE 9 10.00 Fair CLR 50 18 28% 47 30.06 1016.2
01 19:53 SE 6 10.00 Fair CLR 63 12 13% 30.05 1015.5
01 18:53 E 5 10.00 Fair CLR 66.9 5 8% 30.06 1016.0
01 17:53 E 6 10.00 Fair CLR 68 1 68 55.9 7% 30.07 1016.7
01 16:53 Calm 10.00 Fair CLR 66.9 -0 7% 30.08 1016.1
01 15:53 Calm 10.00 Fair CLR 66.9 1.9 7% 30.1 1017.5
01 14:53 Vrbl 6 10.00 Fair CLR 64.9 9 11% 30.13 1018.5
01 13:53 S 7 10.00 Fair CLR 62.1 12 14% 30.14 1019.1
01 12:53 SE 9 10.00 Fair CLR 61 15.1 17% 30.16 1019.0
01 11:53 Vrbl 3 10.00 Fair CLR 55.9 17.1 57 25 22% 30.18 1020.4
01 10:53 W 6 10.00 Fair CLR 54 19 25% 30.2 1020.8
01 09:53 SW 9 10.00 Fair CLR 48 19.9 33% 44 30.2 1021.8
01 08:53 SW 10 10.00 Fair CLR 43 21 42% 38 30.21 1022.3
01 07:53 SW 9 10.00 Fair CLR 35.1 19.9 54% 29 30.21 1022.4
01 06:53 SW 12 10.00 Fair CLR 28.9 18 63% 20 30.2 1022.1
01 05:53 SW 7 10.00 Fair CLR 25 17.1 41 25 72% 18 30.19 1022.3
01 04:53 S 7 10.00 Fair CLR 35.1 18 50% 30 30.19 1021.1
01 03:53 S 12 10.00 Fair CLR 28.9 17.1 61% 20 30.18 1021.3
01 02:53 SW 3 10.00 Fair CLR 28 18 66% 30.18 1021.6
01 01:53 SW 5 10.00 Fair CLR 32 18 56% 28 30.18 1021.3
Date Time (mdt) Wind (mph) Vis. (mi.) Weather Sky Cond. Air Dwpt Max. Min. Relative Humidity Wind Chill (°F) Heat Index (°F) altimeter (in) sea level (mb) 1 hr 3 hr 6 hr
6 hour
Temperature (ºF) Pressure Precipitation (in)